Aérodrome :
LOGIN :

S'inscrire | Disclaimer

   EN    FR    IT 

 










Légende :    VFR   VFR Marginal   IFR   IFR Intensif   IFR Très Intensif
Visi : 
Plafond : 
>= 8 km
>= 3000ft
5 à 8 km
1000 à 3000 ft
1500m à 5 km
500 à 1000 ft
800 à 1500m
200 à 500 ft
< 800m
< 200 ft
Symboles :   Orages  Brouillard  Fortes neiges  Fortes précipitations  Vent > 20 kt
SIGMETs :   Divers  Orages  Givrage  Turbulence  Onde Orograph.  Cendres Volcan.






- Altitude de l'aérodrome : 183 ft
- Code IATA : HAJ


EDDV - Hanover/Langenhagen Int.

DERNIER METAR :
  • 230150Z AUTO 07001KT CAVOK 16/14 Q1017

METARs EXPIRÉS :
  • 230120Z AUTO 16002KT CAVOK 18/14 Q1017
  • 230050Z AUTO 16002KT CAVOK 18/14 Q1017
  • 230020Z AUTO VRB02KT CAVOK 18/14 Q1017
  • 222350Z AUTO 18003KT CAVOK 19/14 Q1017
  • 222320Z AUTO 18003KT 9999 FEW040 19/14 Q1017
  • 222250Z AUTO 18003KT 9999 BKN043 19/14 Q1017
  • 222220Z AUTO 00000KT 9999 BKN047 19/14 Q1018
  • 222150Z AUTO 00000KT CAVOK 19/14 Q1018
  • 222120Z AUTO 00000KT CAVOK 19/14 Q1018

TAF TAF EDDV
Valide du 23 à 00h jusqu'au 24 à 00h UTC


222300Z 2300/2324 VRB03KT 9999 SCT035
BECMG 2302/2304 18005KT
BECMG 2306/2308 22010KT
TEMPO 2309/2321 26015KT 3500 SHRA SCT012 BKN030CB
PROB40
TEMPO 2310/2319 26020G35KT 2500 +TSRAGR SCT010 BKN014CB
BECMG 2315/2318 28007KT
PROB40
TEMPO 2319/2324 BKN009



MET'MAP, la Météo Aéronautique d'un coup d'oeil ! - Copyright ORBIFLY Décembre 2007 - Disclaimer

ORBIFLY MET'MAP TEAM :

Programmation & Développement : Alexandra Zaïnal
Sur une idée originale de : Baudouin d'Aumeries
Soutien technique & logistique : Manuel Goepfert
Assistance : Marc-Olivier Méhu




SOURCES & CREDITS :

   NOAA